sensor_id;sensor_type;location;lat;lon;timestamp;P1;durP1;ratioP1;P2;durP2;ratioP2
18383;SDS011;9318;48.644;9.456;2024-01-30T00:00:32;1.70;;;1.70;;
18383;SDS011;9318;48.644;9.456;2024-01-30T00:02:59;1.70;;;1.70;;
18383;SDS011;9318;48.644;9.456;2024-01-30T00:05:25;1.70;;;1.70;;
18383;SDS011;9318;48.644;9.456;2024-01-30T00:07:54;2.10;;;2.00;;
18383;SDS011;9318;48.644;9.456;2024-01-30T00:10:20;1.60;;;1.60;;
18383;SDS011;9318;48.644;9.456;2024-01-30T00:12:47;1.70;;;1.70;;
18383;SDS011;9318;48.644;9.456;2024-01-30T00:15:14;1.70;;;1.70;;
18383;SDS011;9318;48.644;9.456;2024-01-30T00:17:41;1.70;;;1.70;;
18383;SDS011;9318;48.644;9.456;2024-01-30T00:20:08;1.70;;;1.70;;
18383;SDS011;9318;48.644;9.456;2024-01-30T00:22:35;1.70;;;1.70;;
18383;SDS011;9318;48.644;9.456;2024-01-30T00:25:04;1.70;;;1.70;;
18383;SDS011;9318;48.644;9.456;2024-01-30T00:27:31;1.70;;;1.70;;
18383;SDS011;9318;48.644;9.456;2024-01-30T00:29:57;2.00;;;2.00;;
18383;SDS011;9318;48.644;9.456;2024-01-30T00:32:24;1.70;;;1.70;;
18383;SDS011;9318;48.644;9.456;2024-01-30T00:34:51;1.70;;;1.70;;
18383;SDS011;9318;48.644;9.456;2024-01-30T00:37:18;1.70;;;1.70;;
18383;SDS011;9318;48.644;9.456;2024-01-30T00:39:44;1.73;;;1.73;;
18383;SDS011;9318;48.644;9.456;2024-01-30T00:42:13;1.80;;;1.80;;
18383;SDS011;9318;48.644;9.456;2024-01-30T00:44:40;1.60;;;1.60;;
18383;SDS011;9318;48.644;9.456;2024-01-30T00:47:06;1.70;;;1.70;;
18383;SDS011;9318;48.644;9.456;2024-01-30T00:49:33;2.00;;;2.00;;
18383;SDS011;9318;48.644;9.456;2024-01-30T00:52:00;1.70;;;1.70;;
18383;SDS011;9318;48.644;9.456;2024-01-30T00:54:27;1.60;;;1.60;;
18383;SDS011;9318;48.644;9.456;2024-01-30T00:56:54;1.60;;;1.60;;
18383;SDS011;9318;48.644;9.456;2024-01-30T00:59:22;1.60;;;1.60;;
18383;SDS011;9318;48.644;9.456;2024-01-30T01:01:49;1.70;;;1.70;;
18383;SDS011;9318;48.644;9.456;2024-01-30T01:04:15;1.70;;;1.70;;
18383;SDS011;9318;48.644;9.456;2024-01-30T01:06:43;1.70;;;1.70;;
18383;SDS011;9318;48.644;9.456;2024-01-30T01:09:10;1.60;;;1.60;;
18383;SDS011;9318;48.644;9.456;2024-01-30T01:11:37;1.90;;;1.90;;
18383;SDS011;9318;48.644;9.456;2024-01-30T01:14:04;1.70;;;1.70;;
18383;SDS011;9318;48.644;9.456;2024-01-30T01:16:32;1.60;;;1.60;;
18383;SDS011;9318;48.644;9.456;2024-01-30T01:19:00;1.63;;;1.63;;
18383;SDS011;9318;48.644;9.456;2024-01-30T01:21:28;1.70;;;1.70;;
18383;SDS011;9318;48.644;9.456;2024-01-30T01:23:55;1.70;;;1.70;;
18383;SDS011;9318;48.644;9.456;2024-01-30T01:26:21;1.60;;;1.60;;
18383;SDS011;9318;48.644;9.456;2024-01-30T01:28:48;1.70;;;1.70;;
18383;SDS011;9318;48.644;9.456;2024-01-30T01:31:15;1.60;;;1.60;;
18383;SDS011;9318;48.644;9.456;2024-01-30T01:33:44;1.90;;;1.90;;
18383;SDS011;9318;48.644;9.456;2024-01-30T01:36:10;2.00;;;2.00;;
18383;SDS011;9318;48.644;9.456;2024-01-30T01:38:37;1.60;;;1.60;;
18383;SDS011;9318;48.644;9.456;2024-01-30T01:41:04;1.90;;;1.90;;
18383;SDS011;9318;48.644;9.456;2024-01-30T01:43:31;1.73;;;1.73;;
18383;SDS011;9318;48.644;9.456;2024-01-30T01:45:58;2.00;;;2.00;;
18383;SDS011;9318;48.644;9.456;2024-01-30T01:48:24;1.60;;;1.60;;
18383;SDS011;9318;48.644;9.456;2024-01-30T01:50:53;1.77;;;1.77;;
18383;SDS011;9318;48.644;9.456;2024-01-30T01:53:20;2.20;;;2.10;;
18383;SDS011;9318;48.644;9.456;2024-01-30T01:55:48;1.70;;;1.70;;
18383;SDS011;9318;48.644;9.456;2024-01-30T01:58:15;1.90;;;1.90;;
18383;SDS011;9318;48.644;9.456;2024-01-30T02:00:42;2.00;;;2.00;;
18383;SDS011;9318;48.644;9.456;2024-01-30T02:03:09;1.70;;;1.70;;
18383;SDS011;9318;48.644;9.456;2024-01-30T02:05:37;1.73;;;1.73;;
18383;SDS011;9318;48.644;9.456;2024-01-30T02:08:07;1.70;;;1.70;;
18383;SDS011;9318;48.644;9.456;2024-01-30T02:10:34;1.70;;;1.70;;
18383;SDS011;9318;48.644;9.456;2024-01-30T02:13:01;1.80;;;1.80;;
18383;SDS011;9318;48.644;9.456;2024-01-30T02:15:29;1.60;;;1.60;;
18383;SDS011;9318;48.644;9.456;2024-01-30T02:17:56;1.80;;;1.80;;
18383;SDS011;9318;48.644;9.456;2024-01-30T02:20:23;1.70;;;1.70;;
18383;SDS011;9318;48.644;9.456;2024-01-30T02:22:53;1.90;;;1.90;;
18383;SDS011;9318;48.644;9.456;2024-01-30T02:25:29;1.60;;;1.60;;
18383;SDS011;9318;48.644;9.456;2024-01-30T02:27:56;1.70;;;1.70;;
18383;SDS011;9318;48.644;9.456;2024-01-30T02:30:23;1.70;;;1.70;;
18383;SDS011;9318;48.644;9.456;2024-01-30T02:32:50;1.60;;;1.60;;
18383;SDS011;9318;48.644;9.456;2024-01-30T02:35:17;1.67;;;1.67;;
18383;SDS011;9318;48.644;9.456;2024-01-30T02:37:43;1.60;;;1.60;;
18383;SDS011;9318;48.644;9.456;2024-01-30T02:40:12;1.70;;;1.70;;
18383;SDS011;9318;48.644;9.456;2024-01-30T02:42:39;1.70;;;1.70;;
18383;SDS011;9318;48.644;9.456;2024-01-30T02:45:07;1.70;;;1.70;;
18383;SDS011;9318;48.644;9.456;2024-01-30T02:47:34;1.90;;;1.90;;
18383;SDS011;9318;48.644;9.456;2024-01-30T02:50:01;1.70;;;1.70;;
18383;SDS011;9318;48.644;9.456;2024-01-30T02:52:28;1.70;;;1.70;;
18383;SDS011;9318;48.644;9.456;2024-01-30T02:54:55;2.00;;;2.00;;
18383;SDS011;9318;48.644;9.456;2024-01-30T02:57:23;1.70;;;1.70;;
18383;SDS011;9318;48.644;9.456;2024-01-30T02:59:50;1.70;;;1.70;;
18383;SDS011;9318;48.644;9.456;2024-01-30T03:02:16;1.70;;;1.70;;
18383;SDS011;9318;48.644;9.456;2024-01-30T03:04:43;1.70;;;1.70;;
18383;SDS011;9318;48.644;9.456;2024-01-30T03:07:10;1.80;;;1.80;;
18383;SDS011;9318;48.644;9.456;2024-01-30T03:09:37;1.80;;;1.80;;
18383;SDS011;9318;48.644;9.456;2024-01-30T03:12:05;1.90;;;1.90;;
18383;SDS011;9318;48.644;9.456;2024-01-30T03:14:33;1.60;;;1.60;;
18383;SDS011;9318;48.644;9.456;2024-01-30T03:17:00;1.73;;;1.73;;
18383;SDS011;9318;48.644;9.456;2024-01-30T03:19:28;1.90;;;1.90;;
18383;SDS011;9318;48.644;9.456;2024-01-30T03:21:55;1.60;;;1.60;;
18383;SDS011;9318;48.644;9.456;2024-01-30T03:24:22;1.80;;;1.80;;
18383;SDS011;9318;48.644;9.456;2024-01-30T03:26:49;1.70;;;1.70;;
18383;SDS011;9318;48.644;9.456;2024-01-30T03:29:16;1.90;;;1.90;;
18383;SDS011;9318;48.644;9.456;2024-01-30T03:31:44;2.00;;;2.00;;
18383;SDS011;9318;48.644;9.456;2024-01-30T03:34:11;1.70;;;1.70;;
18383;SDS011;9318;48.644;9.456;2024-01-30T03:36:38;1.70;;;1.70;;
18383;SDS011;9318;48.644;9.456;2024-01-30T03:39:06;1.80;;;1.80;;
18383;SDS011;9318;48.644;9.456;2024-01-30T03:41:32;1.70;;;1.70;;
18383;SDS011;9318;48.644;9.456;2024-01-30T03:43:59;1.60;;;1.60;;
18383;SDS011;9318;48.644;9.456;2024-01-30T03:46:26;2.00;;;2.00;;
18383;SDS011;9318;48.644;9.456;2024-01-30T03:48:55;1.90;;;1.90;;
18383;SDS011;9318;48.644;9.456;2024-01-30T03:51:22;1.70;;;1.70;;
18383;SDS011;9318;48.644;9.456;2024-01-30T03:53:49;1.77;;;1.77;;
18383;SDS011;9318;48.644;9.456;2024-01-30T03:56:16;1.70;;;1.70;;
18383;SDS011;9318;48.644;9.456;2024-01-30T03:58:43;1.80;;;1.80;;
18383;SDS011;9318;48.644;9.456;2024-01-30T04:01:13;1.80;;;1.80;;
18383;SDS011;9318;48.644;9.456;2024-01-30T04:03:40;1.57;;;1.57;;
18383;SDS011;9318;48.644;9.456;2024-01-30T04:06:10;1.70;;;1.70;;
18383;SDS011;9318;48.644;9.456;2024-01-30T04:08:37;1.73;;;1.73;;
18383;SDS011;9318;48.644;9.456;2024-01-30T04:11:04;1.80;;;1.80;;
18383;SDS011;9318;48.644;9.456;2024-01-30T04:13:31;1.80;;;1.80;;
18383;SDS011;9318;48.644;9.456;2024-01-30T04:15:59;1.60;;;1.60;;
18383;SDS011;9318;48.644;9.456;2024-01-30T04:18:27;1.70;;;1.70;;
18383;SDS011;9318;48.644;9.456;2024-01-30T04:20:54;1.70;;;1.70;;
18383;SDS011;9318;48.644;9.456;2024-01-30T04:23:23;1.70;;;1.70;;
18383;SDS011;9318;48.644;9.456;2024-01-30T04:25:50;1.70;;;1.70;;
18383;SDS011;9318;48.644;9.456;2024-01-30T04:28:17;1.70;;;1.70;;
18383;SDS011;9318;48.644;9.456;2024-01-30T04:30:44;1.70;;;1.70;;
18383;SDS011;9318;48.644;9.456;2024-01-30T04:33:11;2.10;;;2.00;;
18383;SDS011;9318;48.644;9.456;2024-01-30T04:35:38;1.97;;;1.97;;
18383;SDS011;9318;48.644;9.456;2024-01-30T04:38:05;1.70;;;1.70;;
18383;SDS011;9318;48.644;9.456;2024-01-30T04:40:33;1.70;;;1.70;;
18383;SDS011;9318;48.644;9.456;2024-01-30T04:43:00;1.70;;;1.70;;
18383;SDS011;9318;48.644;9.456;2024-01-30T04:45:27;1.70;;;1.70;;
18383;SDS011;9318;48.644;9.456;2024-01-30T04:47:54;2.30;;;2.20;;
18383;SDS011;9318;48.644;9.456;2024-01-30T04:50:20;1.90;;;1.90;;
18383;SDS011;9318;48.644;9.456;2024-01-30T04:52:47;1.63;;;1.63;;
18383;SDS011;9318;48.644;9.456;2024-01-30T04:55:14;1.90;;;1.90;;
18383;SDS011;9318;48.644;9.456;2024-01-30T04:57:42;1.90;;;1.90;;
18383;SDS011;9318;48.644;9.456;2024-01-30T05:00:09;2.30;;;2.20;;
18383;SDS011;9318;48.644;9.456;2024-01-30T05:02:37;2.23;;;2.13;;
18383;SDS011;9318;48.644;9.456;2024-01-30T05:05:04;2.20;;;2.10;;
18383;SDS011;9318;48.644;9.456;2024-01-30T05:07:31;1.80;;;1.80;;
18383;SDS011;9318;48.644;9.456;2024-01-30T05:09:58;1.93;;;1.93;;
18383;SDS011;9318;48.644;9.456;2024-01-30T05:12:25;1.70;;;1.70;;
18383;SDS011;9318;48.644;9.456;2024-01-30T05:14:54;2.20;;;2.10;;
18383;SDS011;9318;48.644;9.456;2024-01-30T05:17:21;1.90;;;1.90;;
18383;SDS011;9318;48.644;9.456;2024-01-30T05:19:47;1.70;;;1.70;;
18383;SDS011;9318;48.644;9.456;2024-01-30T05:22:14;1.70;;;1.70;;
18383;SDS011;9318;48.644;9.456;2024-01-30T05:24:43;2.00;;;2.00;;
18383;SDS011;9318;48.644;9.456;2024-01-30T05:27:10;1.80;;;1.80;;
18383;SDS011;9318;48.644;9.456;2024-01-30T05:29:38;1.97;;;1.97;;
18383;SDS011;9318;48.644;9.456;2024-01-30T05:32:06;1.80;;;1.80;;
18383;SDS011;9318;48.644;9.456;2024-01-30T05:34:33;1.83;;;1.83;;
18383;SDS011;9318;48.644;9.456;2024-01-30T05:37:01;1.90;;;1.90;;
18383;SDS011;9318;48.644;9.456;2024-01-30T05:39:28;1.80;;;1.80;;
18383;SDS011;9318;48.644;9.456;2024-01-30T05:41:57;1.80;;;1.80;;
18383;SDS011;9318;48.644;9.456;2024-01-30T05:44:24;1.90;;;1.90;;
18383;SDS011;9318;48.644;9.456;2024-01-30T05:46:51;2.20;;;2.10;;
18383;SDS011;9318;48.644;9.456;2024-01-30T05:49:19;1.90;;;1.90;;
18383;SDS011;9318;48.644;9.456;2024-01-30T05:51:46;1.83;;;1.83;;
18383;SDS011;9318;48.644;9.456;2024-01-30T05:54:13;1.80;;;1.80;;
18383;SDS011;9318;48.644;9.456;2024-01-30T05:56:40;1.80;;;1.80;;
18383;SDS011;9318;48.644;9.456;2024-01-30T05:59:06;1.70;;;1.70;;
18383;SDS011;9318;48.644;9.456;2024-01-30T06:01:32;1.80;;;1.80;;
18383;SDS011;9318;48.644;9.456;2024-01-30T06:03:59;1.80;;;1.80;;
18383;SDS011;9318;48.644;9.456;2024-01-30T06:06:28;1.80;;;1.80;;
18383;SDS011;9318;48.644;9.456;2024-01-30T06:08:54;1.80;;;1.80;;
18383;SDS011;9318;48.644;9.456;2024-01-30T06:11:21;1.90;;;1.90;;
18383;SDS011;9318;48.644;9.456;2024-01-30T06:13:48;1.80;;;1.80;;
18383;SDS011;9318;48.644;9.456;2024-01-30T06:16:15;1.90;;;1.90;;
18383;SDS011;9318;48.644;9.456;2024-01-30T06:18:41;1.70;;;1.70;;
18383;SDS011;9318;48.644;9.456;2024-01-30T06:21:08;1.90;;;1.90;;
18383;SDS011;9318;48.644;9.456;2024-01-30T06:23:36;1.80;;;1.80;;
18383;SDS011;9318;48.644;9.456;2024-01-30T06:26:03;1.80;;;1.80;;
18383;SDS011;9318;48.644;9.456;2024-01-30T06:28:31;1.90;;;1.90;;
18383;SDS011;9318;48.644;9.456;2024-01-30T06:30:57;1.70;;;1.70;;
18383;SDS011;9318;48.644;9.456;2024-01-30T06:33:26;1.90;;;1.90;;
18383;SDS011;9318;48.644;9.456;2024-01-30T06:35:53;1.80;;;1.80;;
18383;SDS011;9318;48.644;9.456;2024-01-30T06:38:20;1.80;;;1.80;;
18383;SDS011;9318;48.644;9.456;2024-01-30T06:40:48;1.70;;;1.70;;
18383;SDS011;9318;48.644;9.456;2024-01-30T06:43:14;1.80;;;1.80;;
18383;SDS011;9318;48.644;9.456;2024-01-30T06:45:41;1.90;;;1.90;;
18383;SDS011;9318;48.644;9.456;2024-01-30T06:48:08;1.90;;;1.90;;
18383;SDS011;9318;48.644;9.456;2024-01-30T06:50:35;1.80;;;1.80;;
18383;SDS011;9318;48.644;9.456;2024-01-30T06:53:01;2.00;;;2.00;;
18383;SDS011;9318;48.644;9.456;2024-01-30T06:55:28;1.70;;;1.70;;
18383;SDS011;9318;48.644;9.456;2024-01-30T06:57:57;2.20;;;2.10;;
18383;SDS011;9318;48.644;9.456;2024-01-30T07:00:23;1.80;;;1.80;;
18383;SDS011;9318;48.644;9.456;2024-01-30T07:02:50;1.80;;;1.80;;
18383;SDS011;9318;48.644;9.456;2024-01-30T07:05:17;1.90;;;1.90;;
18383;SDS011;9318;48.644;9.456;2024-01-30T07:07:43;1.80;;;1.80;;
18383;SDS011;9318;48.644;9.456;2024-01-30T07:10:10;1.70;;;1.70;;
18383;SDS011;9318;48.644;9.456;2024-01-30T07:12:37;1.90;;;1.90;;
18383;SDS011;9318;48.644;9.456;2024-01-30T07:15:06;1.80;;;1.80;;
18383;SDS011;9318;48.644;9.456;2024-01-30T07:17:34;1.90;;;1.90;;
18383;SDS011;9318;48.644;9.456;2024-01-30T07:20:00;1.80;;;1.80;;
18383;SDS011;9318;48.644;9.456;2024-01-30T07:22:28;1.80;;;1.80;;
18383;SDS011;9318;48.644;9.456;2024-01-30T07:24:55;1.80;;;1.80;;
18383;SDS011;9318;48.644;9.456;2024-01-30T07:27:22;2.20;;;2.10;;
18383;SDS011;9318;48.644;9.456;2024-01-30T07:29:49;1.70;;;1.70;;
18383;SDS011;9318;48.644;9.456;2024-01-30T07:32:17;2.10;;;2.00;;
18383;SDS011;9318;48.644;9.456;2024-01-30T07:34:44;2.20;;;2.10;;
18383;SDS011;9318;48.644;9.456;2024-01-30T07:37:11;1.70;;;1.70;;
18383;SDS011;9318;48.644;9.456;2024-01-30T07:39:40;2.10;;;2.00;;
18383;SDS011;9318;48.644;9.456;2024-01-30T07:42:07;1.70;;;1.70;;
18383;SDS011;9318;48.644;9.456;2024-01-30T07:44:34;1.70;;;1.70;;
18383;SDS011;9318;48.644;9.456;2024-01-30T07:47:01;1.70;;;1.70;;
18383;SDS011;9318;48.644;9.456;2024-01-30T07:49:29;2.20;;;2.10;;
18383;SDS011;9318;48.644;9.456;2024-01-30T07:51:56;1.70;;;1.70;;
18383;SDS011;9318;48.644;9.456;2024-01-30T07:54:22;1.70;;;1.70;;
18383;SDS011;9318;48.644;9.456;2024-01-30T07:56:49;1.70;;;1.70;;
18383;SDS011;9318;48.644;9.456;2024-01-30T07:59:16;1.70;;;1.70;;
18383;SDS011;9318;48.644;9.456;2024-01-30T08:01:44;2.00;;;2.00;;
18383;SDS011;9318;48.644;9.456;2024-01-30T08:04:11;1.70;;;1.70;;
18383;SDS011;9318;48.644;9.456;2024-01-30T08:06:39;1.67;;;1.67;;
18383;SDS011;9318;48.644;9.456;2024-01-30T08:09:06;1.70;;;1.70;;
18383;SDS011;9318;48.644;9.456;2024-01-30T08:11:33;1.70;;;1.70;;
18383;SDS011;9318;48.644;9.456;2024-01-30T08:14:00;1.70;;;1.70;;
18383;SDS011;9318;48.644;9.456;2024-01-30T08:16:27;1.60;;;1.60;;
18383;SDS011;9318;48.644;9.456;2024-01-30T08:18:54;1.60;;;1.60;;
18383;SDS011;9318;48.644;9.456;2024-01-30T08:21:22;1.60;;;1.60;;
18383;SDS011;9318;48.644;9.456;2024-01-30T08:23:50;1.67;;;1.67;;
18383;SDS011;9318;48.644;9.456;2024-01-30T08:26:17;1.60;;;1.60;;
18383;SDS011;9318;48.644;9.456;2024-01-30T08:28:44;1.60;;;1.60;;
18383;SDS011;9318;48.644;9.456;2024-01-30T08:31:10;1.60;;;1.60;;
18383;SDS011;9318;48.644;9.456;2024-01-30T08:33:38;1.60;;;1.60;;
18383;SDS011;9318;48.644;9.456;2024-01-30T08:36:04;1.60;;;1.60;;
18383;SDS011;9318;48.644;9.456;2024-01-30T08:38:31;1.47;;;1.47;;
18383;SDS011;9318;48.644;9.456;2024-01-30T08:41:00;1.60;;;1.60;;
18383;SDS011;9318;48.644;9.456;2024-01-30T08:43:26;1.60;;;1.60;;
18383;SDS011;9318;48.644;9.456;2024-01-30T08:45:53;1.70;;;1.70;;
18383;SDS011;9318;48.644;9.456;2024-01-30T08:48:22;1.50;;;1.50;;
18383;SDS011;9318;48.644;9.456;2024-01-30T08:50:50;1.50;;;1.50;;
18383;SDS011;9318;48.644;9.456;2024-01-30T08:53:17;1.50;;;1.50;;
18383;SDS011;9318;48.644;9.456;2024-01-30T08:55:43;1.50;;;1.50;;
18383;SDS011;9318;48.644;9.456;2024-01-30T08:58:11;1.50;;;1.50;;
18383;SDS011;9318;48.644;9.456;2024-01-30T09:00:38;1.53;;;1.53;;
18383;SDS011;9318;48.644;9.456;2024-01-30T09:03:05;1.50;;;1.50;;
18383;SDS011;9318;48.644;9.456;2024-01-30T09:05:32;1.50;;;1.50;;
18383;SDS011;9318;48.644;9.456;2024-01-30T09:07:58;1.50;;;1.50;;
18383;SDS011;9318;48.644;9.456;2024-01-30T09:10:25;1.73;;;1.73;;
18383;SDS011;9318;48.644;9.456;2024-01-30T09:12:52;1.50;;;1.50;;
18383;SDS011;9318;48.644;9.456;2024-01-30T09:15:21;1.50;;;1.50;;
18383;SDS011;9318;48.644;9.456;2024-01-30T09:17:48;1.40;;;1.40;;
18383;SDS011;9318;48.644;9.456;2024-01-30T09:20:15;1.50;;;1.50;;
18383;SDS011;9318;48.644;9.456;2024-01-30T09:22:42;1.50;;;1.50;;
18383;SDS011;9318;48.644;9.456;2024-01-30T09:25:09;1.40;;;1.40;;
18383;SDS011;9318;48.644;9.456;2024-01-30T09:27:36;1.40;;;1.40;;
18383;SDS011;9318;48.644;9.456;2024-01-30T09:30:03;1.40;;;1.40;;
18383;SDS011;9318;48.644;9.456;2024-01-30T09:32:31;1.40;;;1.40;;
18383;SDS011;9318;48.644;9.456;2024-01-30T09:34:58;1.50;;;1.50;;
18383;SDS011;9318;48.644;9.456;2024-01-30T09:37:25;1.40;;;1.40;;
18383;SDS011;9318;48.644;9.456;2024-01-30T09:39:52;1.30;;;1.30;;
18383;SDS011;9318;48.644;9.456;2024-01-30T09:42:20;1.40;;;1.40;;
18383;SDS011;9318;48.644;9.456;2024-01-30T09:44:54;1.30;;;1.30;;
18383;SDS011;9318;48.644;9.456;2024-01-30T09:47:20;1.30;;;1.30;;
18383;SDS011;9318;48.644;9.456;2024-01-30T09:49:49;1.37;;;1.37;;
18383;SDS011;9318;48.644;9.456;2024-01-30T09:52:17;1.30;;;1.30;;
18383;SDS011;9318;48.644;9.456;2024-01-30T09:54:44;1.30;;;1.30;;
18383;SDS011;9318;48.644;9.456;2024-01-30T09:57:11;1.20;;;1.20;;
18383;SDS011;9318;48.644;9.456;2024-01-30T09:59:38;1.30;;;1.30;;
18383;SDS011;9318;48.644;9.456;2024-01-30T10:02:05;1.20;;;1.20;;
18383;SDS011;9318;48.644;9.456;2024-01-30T10:04:33;1.20;;;1.20;;
18383;SDS011;9318;48.644;9.456;2024-01-30T10:07:01;1.33;;;1.33;;
18383;SDS011;9318;48.644;9.456;2024-01-30T10:09:29;1.20;;;1.20;;
18383;SDS011;9318;48.644;9.456;2024-01-30T10:11:58;1.10;;;1.10;;
18383;SDS011;9318;48.644;9.456;2024-01-30T10:14:25;1.20;;;1.20;;
18383;SDS011;9318;48.644;9.456;2024-01-30T10:16:51;0.90;;;0.90;;
18383;SDS011;9318;48.644;9.456;2024-01-30T10:19:18;1.20;;;1.20;;
18383;SDS011;9318;48.644;9.456;2024-01-30T10:21:45;1.00;;;1.00;;
18383;SDS011;9318;48.644;9.456;2024-01-30T10:24:14;1.20;;;1.20;;
18383;SDS011;9318;48.644;9.456;2024-01-30T10:26:43;1.20;;;1.20;;
18383;SDS011;9318;48.644;9.456;2024-01-30T10:29:10;1.20;;;1.20;;
18383;SDS011;9318;48.644;9.456;2024-01-30T10:31:37;1.20;;;1.20;;
18383;SDS011;9318;48.644;9.456;2024-01-30T10:34:04;1.20;;;1.20;;
18383;SDS011;9318;48.644;9.456;2024-01-30T10:36:30;1.23;;;1.23;;
18383;SDS011;9318;48.644;9.456;2024-01-30T10:39:05;1.20;;;1.20;;
18383;SDS011;9318;48.644;9.456;2024-01-30T10:41:35;1.10;;;1.10;;
18383;SDS011;9318;48.644;9.456;2024-01-30T10:44:09;1.10;;;1.10;;
18383;SDS011;9318;48.644;9.456;2024-01-30T10:46:37;1.17;;;1.17;;
18383;SDS011;9318;48.644;9.456;2024-01-30T10:49:04;1.20;;;1.20;;
18383;SDS011;9318;48.644;9.456;2024-01-30T10:51:32;1.20;;;1.20;;
18383;SDS011;9318;48.644;9.456;2024-01-30T10:54:01;1.10;;;1.10;;
18383;SDS011;9318;48.644;9.456;2024-01-30T10:56:31;1.20;;;1.20;;
18383;SDS011;9318;48.644;9.456;2024-01-30T10:59:00;1.10;;;1.10;;
18383;SDS011;9318;48.644;9.456;2024-01-30T11:01:28;1.10;;;1.10;;
18383;SDS011;9318;48.644;9.456;2024-01-30T11:03:56;1.27;;;1.27;;
18383;SDS011;9318;48.644;9.456;2024-01-30T11:06:23;1.10;;;1.10;;
18383;SDS011;9318;48.644;9.456;2024-01-30T11:09:00;1.10;;;1.10;;
18383;SDS011;9318;48.644;9.456;2024-01-30T11:11:28;1.30;;;1.30;;
18383;SDS011;9318;48.644;9.456;2024-01-30T11:13:55;1.30;;;1.30;;
18383;SDS011;9318;48.644;9.456;2024-01-30T11:16:30;1.20;;;1.20;;
18383;SDS011;9318;48.644;9.456;2024-01-30T11:18:59;1.10;;;1.10;;
18383;SDS011;9318;48.644;9.456;2024-01-30T11:21:27;1.40;;;1.40;;
18383;SDS011;9318;48.644;9.456;2024-01-30T11:23:54;1.30;;;1.30;;
18383;SDS011;9318;48.644;9.456;2024-01-30T11:26:23;1.20;;;1.20;;
18383;SDS011;9318;48.644;9.456;2024-01-30T11:28:53;1.20;;;1.20;;
18383;SDS011;9318;48.644;9.456;2024-01-30T11:31:21;1.20;;;1.20;;
18383;SDS011;9318;48.644;9.456;2024-01-30T11:33:49;1.10;;;1.10;;
18383;SDS011;9318;48.644;9.456;2024-01-30T11:36:19;1.20;;;1.20;;
18383;SDS011;9318;48.644;9.456;2024-01-30T11:38:51;1.10;;;1.10;;
18383;SDS011;9318;48.644;9.456;2024-01-30T11:41:17;1.00;;;1.00;;
18383;SDS011;9318;48.644;9.456;2024-01-30T11:43:50;1.20;;;1.20;;
18383;SDS011;9318;48.644;9.456;2024-01-30T11:46:17;1.40;;;1.40;;
18383;SDS011;9318;48.644;9.456;2024-01-30T11:48:44;1.30;;;1.30;;
18383;SDS011;9318;48.644;9.456;2024-01-30T11:51:13;1.20;;;1.20;;
18383;SDS011;9318;48.644;9.456;2024-01-30T11:53:40;1.20;;;1.20;;
18383;SDS011;9318;48.644;9.456;2024-01-30T11:56:07;1.30;;;1.30;;
18383;SDS011;9318;48.644;9.456;2024-01-30T11:58:34;1.23;;;1.23;;
18383;SDS011;9318;48.644;9.456;2024-01-30T12:01:01;1.10;;;1.10;;
18383;SDS011;9318;48.644;9.456;2024-01-30T12:03:28;1.30;;;1.30;;
18383;SDS011;9318;48.644;9.456;2024-01-30T12:05:55;1.20;;;1.20;;
18383;SDS011;9318;48.644;9.456;2024-01-30T12:08:24;1.30;;;1.30;;
18383;SDS011;9318;48.644;9.456;2024-01-30T12:10:55;1.30;;;1.30;;
18383;SDS011;9318;48.644;9.456;2024-01-30T12:13:23;1.10;;;1.10;;
18383;SDS011;9318;48.644;9.456;2024-01-30T12:15:50;1.20;;;1.20;;
18383;SDS011;9318;48.644;9.456;2024-01-30T12:18:18;1.20;;;1.20;;
18383;SDS011;9318;48.644;9.456;2024-01-30T12:20:45;1.10;;;1.10;;
18383;SDS011;9318;48.644;9.456;2024-01-30T12:23:22;1.20;;;1.20;;
18383;SDS011;9318;48.644;9.456;2024-01-30T12:25:52;1.30;;;1.30;;
18383;SDS011;9318;48.644;9.456;2024-01-30T12:28:19;1.10;;;1.10;;
18383;SDS011;9318;48.644;9.456;2024-01-30T12:30:46;1.10;;;1.10;;
18383;SDS011;9318;48.644;9.456;2024-01-30T12:33:15;1.10;;;1.10;;
18383;SDS011;9318;48.644;9.456;2024-01-30T12:35:45;1.10;;;1.10;;
18383;SDS011;9318;48.644;9.456;2024-01-30T12:38:12;1.20;;;1.20;;
18383;SDS011;9318;48.644;9.456;2024-01-30T12:40:39;1.30;;;1.30;;
18383;SDS011;9318;48.644;9.456;2024-01-30T12:43:07;1.30;;;1.30;;
18383;SDS011;9318;48.644;9.456;2024-01-30T12:45:35;1.20;;;1.20;;
18383;SDS011;9318;48.644;9.456;2024-01-30T12:48:02;1.03;;;1.03;;
18383;SDS011;9318;48.644;9.456;2024-01-30T12:50:29;1.20;;;1.20;;
18383;SDS011;9318;48.644;9.456;2024-01-30T12:52:56;1.10;;;1.10;;
18383;SDS011;9318;48.644;9.456;2024-01-30T12:55:23;0.90;;;0.90;;
18383;SDS011;9318;48.644;9.456;2024-01-30T12:57:53;1.20;;;1.20;;
18383;SDS011;9318;48.644;9.456;2024-01-30T13:00:21;1.20;;;1.20;;
18383;SDS011;9318;48.644;9.456;2024-01-30T13:02:48;1.10;;;1.10;;
18383;SDS011;9318;48.644;9.456;2024-01-30T13:05:15;1.03;;;1.03;;
18383;SDS011;9318;48.644;9.456;2024-01-30T13:07:42;1.20;;;1.20;;
18383;SDS011;9318;48.644;9.456;2024-01-30T13:10:09;1.20;;;1.20;;
18383;SDS011;9318;48.644;9.456;2024-01-30T13:12:36;1.13;;;1.13;;
18383;SDS011;9318;48.644;9.456;2024-01-30T13:15:03;1.20;;;1.20;;
18383;SDS011;9318;48.644;9.456;2024-01-30T13:17:32;1.20;;;1.20;;
18383;SDS011;9318;48.644;9.456;2024-01-30T13:19:59;1.20;;;1.20;;
18383;SDS011;9318;48.644;9.456;2024-01-30T13:22:26;1.10;;;1.10;;
18383;SDS011;9318;48.644;9.456;2024-01-30T13:24:52;1.10;;;1.10;;
18383;SDS011;9318;48.644;9.456;2024-01-30T13:27:20;1.03;;;1.03;;
18383;SDS011;9318;48.644;9.456;2024-01-30T13:29:47;1.10;;;1.10;;
18383;SDS011;9318;48.644;9.456;2024-01-30T13:32:13;1.20;;;1.20;;
18383;SDS011;9318;48.644;9.456;2024-01-30T13:34:42;1.10;;;1.10;;
18383;SDS011;9318;48.644;9.456;2024-01-30T13:37:10;1.10;;;1.10;;
18383;SDS011;9318;48.644;9.456;2024-01-30T13:39:36;1.10;;;1.10;;
18383;SDS011;9318;48.644;9.456;2024-01-30T13:42:04;1.10;;;1.10;;
18383;SDS011;9318;48.644;9.456;2024-01-30T13:44:31;1.23;;;1.23;;
18383;SDS011;9318;48.644;9.456;2024-01-30T13:46:58;1.00;;;1.00;;
18383;SDS011;9318;48.644;9.456;2024-01-30T13:49:24;1.10;;;1.10;;
18383;SDS011;9318;48.644;9.456;2024-01-30T13:51:53;1.07;;;1.07;;
18383;SDS011;9318;48.644;9.456;2024-01-30T13:54:20;1.10;;;1.10;;
18383;SDS011;9318;48.644;9.456;2024-01-30T13:56:47;1.20;;;1.20;;
18383;SDS011;9318;48.644;9.456;2024-01-30T13:59:13;1.10;;;1.10;;
18383;SDS011;9318;48.644;9.456;2024-01-30T14:01:40;1.30;;;1.30;;
18383;SDS011;9318;48.644;9.456;2024-01-30T14:04:07;1.20;;;1.20;;
18383;SDS011;9318;48.644;9.456;2024-01-30T14:06:33;1.10;;;1.10;;
18383;SDS011;9318;48.644;9.456;2024-01-30T14:09:02;1.27;;;1.27;;
18383;SDS011;9318;48.644;9.456;2024-01-30T14:11:29;1.10;;;1.10;;
18383;SDS011;9318;48.644;9.456;2024-01-30T14:13:55;1.10;;;1.10;;
18383;SDS011;9318;48.644;9.456;2024-01-30T14:16:22;1.07;;;1.07;;
18383;SDS011;9318;48.644;9.456;2024-01-30T14:18:50;1.20;;;1.20;;
18383;SDS011;9318;48.644;9.456;2024-01-30T14:21:17;1.20;;;1.20;;
18383;SDS011;9318;48.644;9.456;2024-01-30T14:23:43;1.10;;;1.10;;
18383;SDS011;9318;48.644;9.456;2024-01-30T14:26:11;1.10;;;1.10;;
18383;SDS011;9318;48.644;9.456;2024-01-30T14:28:38;1.10;;;1.10;;
18383;SDS011;9318;48.644;9.456;2024-01-30T14:31:05;1.00;;;1.00;;
18383;SDS011;9318;48.644;9.456;2024-01-30T14:33:32;1.00;;;1.00;;
18383;SDS011;9318;48.644;9.456;2024-01-30T14:35:58;1.20;;;1.20;;
18383;SDS011;9318;48.644;9.456;2024-01-30T14:38:25;1.20;;;1.20;;
18383;SDS011;9318;48.644;9.456;2024-01-30T14:40:53;1.10;;;1.10;;
18383;SDS011;9318;48.644;9.456;2024-01-30T14:43:21;1.20;;;1.20;;
18383;SDS011;9318;48.644;9.456;2024-01-30T14:45:48;1.10;;;1.10;;
18383;SDS011;9318;48.644;9.456;2024-01-30T14:48:17;1.13;;;1.13;;
18383;SDS011;9318;48.644;9.456;2024-01-30T14:50:44;1.00;;;1.00;;
18383;SDS011;9318;48.644;9.456;2024-01-30T14:53:11;1.00;;;1.00;;
18383;SDS011;9318;48.644;9.456;2024-01-30T14:55:38;1.10;;;1.10;;
18383;SDS011;9318;48.644;9.456;2024-01-30T14:58:05;1.10;;;1.10;;
18383;SDS011;9318;48.644;9.456;2024-01-30T15:00:33;1.20;;;1.20;;